aviador You're here:

KMLP Decoded Metar

MULLAN PASS in ID, USA
Report Time2017-07-22 09:53:00
UTC Time2017-07-22 10:35:11
Flight Rules vfr VFR
WindVRB at 03 kt
Visibility9999 m
Phenomena:N/A
Clouds:N/A
Expected CloudBase > 4,800 ft AGL from Temp-Dew spread
CeilingNone
Temp12°C (ISA +9)
Dew Point00°C (44% RH)
AAT9.0°C
QNH1025 hPa
Density Alt6,768 ft
Elevation6,027 ft
Report Wrong Elevation
Raw Report
KMLP 220953Z AUTO VRB03KT 10SM CLR 12/00 A3028 RMK AO2 SLP165
T01170000 TSNO=

Extra information for KMLP:More info

Metar Taf Metar & Taf Last 4 Metars F.Rules Stats Wind Profile Meteogram Temp Stats Airport Information Weather charts Add Link Nearby VenuesMetar ALERT Operation Metar Decoded Social comments

AIRNAV info for KMLP